sensor_id;sensor_type;location;lat;lon;timestamp;pressure;altitude;pressure_sealevel;temperature
20103;BMP180;10210;52.284;9.892;2023-04-28T00:01:43;100676.00;;;13.00
20103;BMP180;10210;52.284;9.892;2023-04-28T00:04:09;100676.00;;;12.90
20103;BMP180;10210;52.284;9.892;2023-04-28T00:06:34;100656.00;;;12.90
20103;BMP180;10210;52.284;9.892;2023-04-28T00:09:00;100656.00;;;12.90
20103;BMP180;10210;52.284;9.892;2023-04-28T00:11:26;100649.00;;;12.90
20103;BMP180;10210;52.284;9.892;2023-04-28T00:13:51;100654.00;;;12.90
20103;BMP180;10210;52.284;9.892;2023-04-28T00:16:17;100653.00;;;12.80
20103;BMP180;10210;52.284;9.892;2023-04-28T00:18:43;100644.00;;;12.80
20103;BMP180;10210;52.284;9.892;2023-04-28T00:21:08;100643.00;;;12.80
20103;BMP180;10210;52.284;9.892;2023-04-28T00:23:34;100634.00;;;12.80
20103;BMP180;10210;52.284;9.892;2023-04-28T00:26:00;100634.00;;;12.80
20103;BMP180;10210;52.284;9.892;2023-04-28T00:28:26;100641.00;;;12.80
20103;BMP180;10210;52.284;9.892;2023-04-28T00:30:52;100638.00;;;12.80
20103;BMP180;10210;52.284;9.892;2023-04-28T00:33:17;100629.00;;;12.70
20103;BMP180;10210;52.284;9.892;2023-04-28T00:35:43;100637.00;;;12.70
20103;BMP180;10210;52.284;9.892;2023-04-28T00:38:09;100637.00;;;12.80
20103;BMP180;10210;52.284;9.892;2023-04-28T00:40:37;100631.00;;;12.80
20103;BMP180;10210;52.284;9.892;2023-04-28T00:43:04;100621.00;;;12.80
20103;BMP180;10210;52.284;9.892;2023-04-28T00:45:30;100630.00;;;12.80
20103;BMP180;10210;52.284;9.892;2023-04-28T00:47:57;100619.00;;;12.80
20103;BMP180;10210;52.284;9.892;2023-04-28T00:50:24;100621.00;;;12.80
20103;BMP180;10210;52.284;9.892;2023-04-28T00:52:51;100624.00;;;12.80
20103;BMP180;10210;52.284;9.892;2023-04-28T00:55:18;100616.00;;;12.70
20103;BMP180;10210;52.284;9.892;2023-04-28T00:57:45;100625.00;;;12.70
20103;BMP180;10210;52.284;9.892;2023-04-28T01:00:11;100617.00;;;12.70
20103;BMP180;10210;52.284;9.892;2023-04-28T01:02:37;100617.00;;;12.70
20103;BMP180;10210;52.284;9.892;2023-04-28T01:05:04;100610.00;;;12.70
20103;BMP180;10210;52.284;9.892;2023-04-28T01:07:30;100607.00;;;12.70
20103;BMP180;10210;52.284;9.892;2023-04-28T01:09:55;100600.00;;;12.70
20103;BMP180;10210;52.284;9.892;2023-04-28T01:12:21;100605.00;;;12.70
20103;BMP180;10210;52.284;9.892;2023-04-28T01:14:49;100607.00;;;12.70
20103;BMP180;10210;52.284;9.892;2023-04-28T01:17:15;100601.00;;;12.70
20103;BMP180;10210;52.284;9.892;2023-04-28T01:19:40;100586.00;;;12.70
20103;BMP180;10210;52.284;9.892;2023-04-28T01:22:06;100588.00;;;12.70
20103;BMP180;10210;52.284;9.892;2023-04-28T01:24:32;100588.00;;;12.70
20103;BMP180;10210;52.284;9.892;2023-04-28T01:26:57;100583.00;;;12.70
20103;BMP180;10210;52.284;9.892;2023-04-28T01:29:23;100577.00;;;12.70
20103;BMP180;10210;52.284;9.892;2023-04-28T01:31:48;100587.00;;;12.70
20103;BMP180;10210;52.284;9.892;2023-04-28T01:34:14;100595.00;;;12.70
20103;BMP180;10210;52.284;9.892;2023-04-28T01:36:40;100588.00;;;12.70
20103;BMP180;10210;52.284;9.892;2023-04-28T01:39:06;100578.00;;;12.70
20103;BMP180;10210;52.284;9.892;2023-04-28T01:41:32;100573.00;;;12.70
20103;BMP180;10210;52.284;9.892;2023-04-28T01:44:00;100574.00;;;12.70
20103;BMP180;10210;52.284;9.892;2023-04-28T01:46:26;100570.00;;;12.70
20103;BMP180;10210;52.284;9.892;2023-04-28T01:48:51;100566.00;;;12.70
20103;BMP180;10210;52.284;9.892;2023-04-28T01:51:17;100563.00;;;12.70
20103;BMP180;10210;52.284;9.892;2023-04-28T01:53:43;100564.00;;;12.70
20103;BMP180;10210;52.284;9.892;2023-04-28T01:56:09;100564.00;;;12.70
20103;BMP180;10210;52.284;9.892;2023-04-28T01:58:34;100559.00;;;12.70
20103;BMP180;10210;52.284;9.892;2023-04-28T02:01:00;100552.00;;;12.60
20103;BMP180;10210;52.284;9.892;2023-04-28T02:03:26;100556.00;;;12.70
20103;BMP180;10210;52.284;9.892;2023-04-28T02:05:52;100546.00;;;12.70
20103;BMP180;10210;52.284;9.892;2023-04-28T02:08:18;100540.00;;;12.70
20103;BMP180;10210;52.284;9.892;2023-04-28T02:10:44;100542.00;;;12.70
20103;BMP180;10210;52.284;9.892;2023-04-28T02:13:10;100547.00;;;12.60
20103;BMP180;10210;52.284;9.892;2023-04-28T02:15:40;100540.00;;;12.60
20103;BMP180;10210;52.284;9.892;2023-04-28T02:18:07;100547.00;;;12.60
20103;BMP180;10210;52.284;9.892;2023-04-28T02:20:32;100547.00;;;12.70
20103;BMP180;10210;52.284;9.892;2023-04-28T02:22:58;100541.00;;;12.70
20103;BMP180;10210;52.284;9.892;2023-04-28T02:25:23;100535.00;;;12.70
20103;BMP180;10210;52.284;9.892;2023-04-28T02:27:49;100527.00;;;12.70
20103;BMP180;10210;52.284;9.892;2023-04-28T02:30:15;100532.00;;;12.60
20103;BMP180;10210;52.284;9.892;2023-04-28T02:32:40;100523.00;;;12.60
20103;BMP180;10210;52.284;9.892;2023-04-28T02:35:07;100523.00;;;12.60
20103;BMP180;10210;52.284;9.892;2023-04-28T02:37:32;100518.00;;;12.50
20103;BMP180;10210;52.284;9.892;2023-04-28T02:39:58;100510.00;;;12.50
20103;BMP180;10210;52.284;9.892;2023-04-28T02:42:23;100497.00;;;12.40
20103;BMP180;10210;52.284;9.892;2023-04-28T02:44:49;100499.00;;;12.40
20103;BMP180;10210;52.284;9.892;2023-04-28T02:47:15;100495.00;;;12.40
20103;BMP180;10210;52.284;9.892;2023-04-28T02:49:40;100498.00;;;12.40
20103;BMP180;10210;52.284;9.892;2023-04-28T02:52:06;100499.00;;;12.40
20103;BMP180;10210;52.284;9.892;2023-04-28T02:54:31;100500.00;;;12.30
20103;BMP180;10210;52.284;9.892;2023-04-28T02:56:59;100496.00;;;12.30
20103;BMP180;10210;52.284;9.892;2023-04-28T02:59:25;100491.00;;;12.30
20103;BMP180;10210;52.284;9.892;2023-04-28T03:01:51;100484.00;;;12.30
20103;BMP180;10210;52.284;9.892;2023-04-28T03:04:17;100476.00;;;12.30
20103;BMP180;10210;52.284;9.892;2023-04-28T03:06:43;100481.00;;;12.30
20103;BMP180;10210;52.284;9.892;2023-04-28T03:09:09;100484.00;;;12.30
20103;BMP180;10210;52.284;9.892;2023-04-28T03:11:35;100479.00;;;12.30
20103;BMP180;10210;52.284;9.892;2023-04-28T03:14:01;100482.00;;;12.30
20103;BMP180;10210;52.284;9.892;2023-04-28T03:16:27;100477.00;;;12.30
20103;BMP180;10210;52.284;9.892;2023-04-28T03:18:52;100469.00;;;12.20
20103;BMP180;10210;52.284;9.892;2023-04-28T03:21:18;100468.00;;;12.20
20103;BMP180;10210;52.284;9.892;2023-04-28T03:23:44;100464.00;;;12.20
20103;BMP180;10210;52.284;9.892;2023-04-28T03:26:09;100457.00;;;12.20
20103;BMP180;10210;52.284;9.892;2023-04-28T03:28:35;100470.00;;;12.20
20103;BMP180;10210;52.284;9.892;2023-04-28T03:31:01;100468.00;;;12.20
20103;BMP180;10210;52.284;9.892;2023-04-28T03:33:27;100451.00;;;12.20
20103;BMP180;10210;52.284;9.892;2023-04-28T03:35:53;100451.00;;;12.10
20103;BMP180;10210;52.284;9.892;2023-04-28T03:38:19;100443.00;;;12.10
20103;BMP180;10210;52.284;9.892;2023-04-28T03:40:45;100438.00;;;12.10
20103;BMP180;10210;52.284;9.892;2023-04-28T03:43:11;100441.00;;;12.10
20103;BMP180;10210;52.284;9.892;2023-04-28T03:45:37;100440.00;;;12.10
20103;BMP180;10210;52.284;9.892;2023-04-28T03:48:03;100437.00;;;12.10
20103;BMP180;10210;52.284;9.892;2023-04-28T03:50:29;100426.00;;;12.10
20103;BMP180;10210;52.284;9.892;2023-04-28T03:52:54;100434.00;;;12.10
20103;BMP180;10210;52.284;9.892;2023-04-28T03:55:20;100416.00;;;12.00
20103;BMP180;10210;52.284;9.892;2023-04-28T03:57:46;100427.00;;;12.00
20103;BMP180;10210;52.284;9.892;2023-04-28T04:00:12;100423.00;;;12.00
20103;BMP180;10210;52.284;9.892;2023-04-28T04:02:38;100431.00;;;11.90
20103;BMP180;10210;52.284;9.892;2023-04-28T04:05:04;100423.00;;;11.80
20103;BMP180;10210;52.284;9.892;2023-04-28T04:07:29;100416.00;;;11.80
20103;BMP180;10210;52.284;9.892;2023-04-28T04:09:55;100419.00;;;11.70
20103;BMP180;10210;52.284;9.892;2023-04-28T04:12:21;100405.00;;;11.70
20103;BMP180;10210;52.284;9.892;2023-04-28T04:14:46;100419.00;;;11.70
20103;BMP180;10210;52.284;9.892;2023-04-28T04:17:12;100414.00;;;11.60
20103;BMP180;10210;52.284;9.892;2023-04-28T04:19:38;100407.00;;;11.60
20103;BMP180;10210;52.284;9.892;2023-04-28T04:22:03;100399.00;;;11.60
20103;BMP180;10210;52.284;9.892;2023-04-28T04:24:29;100401.00;;;11.60
20103;BMP180;10210;52.284;9.892;2023-04-28T04:26:54;100407.00;;;11.60
20103;BMP180;10210;52.284;9.892;2023-04-28T04:29:20;100402.00;;;11.60
20103;BMP180;10210;52.284;9.892;2023-04-28T04:31:46;100398.00;;;11.60
20103;BMP180;10210;52.284;9.892;2023-04-28T04:34:11;100393.00;;;11.60
20103;BMP180;10210;52.284;9.892;2023-04-28T04:36:37;100392.00;;;11.60
20103;BMP180;10210;52.284;9.892;2023-04-28T04:39:03;100397.00;;;11.60
20103;BMP180;10210;52.284;9.892;2023-04-28T04:41:29;100387.00;;;11.70
20103;BMP180;10210;52.284;9.892;2023-04-28T04:43:54;100392.00;;;11.70
20103;BMP180;10210;52.284;9.892;2023-04-28T04:46:20;100393.00;;;11.70
20103;BMP180;10210;52.284;9.892;2023-04-28T04:48:46;100388.00;;;11.70
20103;BMP180;10210;52.284;9.892;2023-04-28T04:51:12;100401.00;;;11.70
20103;BMP180;10210;52.284;9.892;2023-04-28T04:53:37;100393.00;;;11.80
20103;BMP180;10210;52.284;9.892;2023-04-28T04:56:03;100393.00;;;11.80
20103;BMP180;10210;52.284;9.892;2023-04-28T04:58:29;100388.00;;;11.80
20103;BMP180;10210;52.284;9.892;2023-04-28T05:00:55;100387.00;;;11.80
20103;BMP180;10210;52.284;9.892;2023-04-28T05:03:21;100392.00;;;11.80
20103;BMP180;10210;52.284;9.892;2023-04-28T05:05:47;100387.00;;;11.90
20103;BMP180;10210;52.284;9.892;2023-04-28T05:08:13;100384.00;;;11.90
20103;BMP180;10210;52.284;9.892;2023-04-28T05:10:39;100390.00;;;11.90
20103;BMP180;10210;52.284;9.892;2023-04-28T05:13:04;100384.00;;;11.90
20103;BMP180;10210;52.284;9.892;2023-04-28T05:15:30;100383.00;;;11.90
20103;BMP180;10210;52.284;9.892;2023-04-28T05:17:56;100387.00;;;11.90
20103;BMP180;10210;52.284;9.892;2023-04-28T05:20:23;100379.00;;;11.90
20103;BMP180;10210;52.284;9.892;2023-04-28T05:22:48;100368.00;;;12.00
20103;BMP180;10210;52.284;9.892;2023-04-28T05:25:14;100379.00;;;12.00
20103;BMP180;10210;52.284;9.892;2023-04-28T05:27:40;100383.00;;;12.00
20103;BMP180;10210;52.284;9.892;2023-04-28T05:30:07;100386.00;;;12.00
20103;BMP180;10210;52.284;9.892;2023-04-28T05:32:35;100374.00;;;12.00
20103;BMP180;10210;52.284;9.892;2023-04-28T05:35:01;100372.00;;;12.00
20103;BMP180;10210;52.284;9.892;2023-04-28T05:37:27;100372.00;;;12.00
20103;BMP180;10210;52.284;9.892;2023-04-28T05:39:53;100368.00;;;12.00
20103;BMP180;10210;52.284;9.892;2023-04-28T05:42:19;100366.00;;;12.00
20103;BMP180;10210;52.284;9.892;2023-04-28T05:44:44;100362.00;;;12.00
20103;BMP180;10210;52.284;9.892;2023-04-28T05:47:10;100362.00;;;12.10
20103;BMP180;10210;52.284;9.892;2023-04-28T05:49:36;100365.00;;;12.10
20103;BMP180;10210;52.284;9.892;2023-04-28T05:52:03;100360.00;;;12.20
20103;BMP180;10210;52.284;9.892;2023-04-28T05:54:29;100347.00;;;12.20
20103;BMP180;10210;52.284;9.892;2023-04-28T05:56:55;100351.00;;;12.20
20103;BMP180;10210;52.284;9.892;2023-04-28T05:59:22;100360.00;;;12.20
20103;BMP180;10210;52.284;9.892;2023-04-28T06:01:48;100347.00;;;12.20
20103;BMP180;10210;52.284;9.892;2023-04-28T06:04:22;100351.00;;;12.20
20103;BMP180;10210;52.284;9.892;2023-04-28T06:06:49;100350.00;;;12.30
20103;BMP180;10210;52.284;9.892;2023-04-28T06:09:15;100344.00;;;12.30
20103;BMP180;10210;52.284;9.892;2023-04-28T06:11:40;100348.00;;;12.30
20103;BMP180;10210;52.284;9.892;2023-04-28T06:14:06;100339.00;;;12.30
20103;BMP180;10210;52.284;9.892;2023-04-28T06:16:32;100342.00;;;12.30
20103;BMP180;10210;52.284;9.892;2023-04-28T06:18:58;100331.00;;;12.40
20103;BMP180;10210;52.284;9.892;2023-04-28T06:21:23;100338.00;;;12.40
20103;BMP180;10210;52.284;9.892;2023-04-28T06:23:50;100335.00;;;12.40
20103;BMP180;10210;52.284;9.892;2023-04-28T06:26:15;100337.00;;;12.50
20103;BMP180;10210;52.284;9.892;2023-04-28T06:28:41;100322.00;;;12.50
20103;BMP180;10210;52.284;9.892;2023-04-28T06:31:14;100337.00;;;12.50
20103;BMP180;10210;52.284;9.892;2023-04-28T06:33:39;100351.00;;;12.60
20103;BMP180;10210;52.284;9.892;2023-04-28T06:36:05;100343.00;;;12.70
20103;BMP180;10210;52.284;9.892;2023-04-28T06:38:31;100338.00;;;12.70
20103;BMP180;10210;52.284;9.892;2023-04-28T06:40:57;100335.00;;;12.80
20103;BMP180;10210;52.284;9.892;2023-04-28T06:43:22;100330.00;;;12.80
20103;BMP180;10210;52.284;9.892;2023-04-28T06:45:48;100335.00;;;12.90
20103;BMP180;10210;52.284;9.892;2023-04-28T06:48:14;100339.00;;;13.00
20103;BMP180;10210;52.284;9.892;2023-04-28T06:50:39;100335.00;;;13.00
20103;BMP180;10210;52.284;9.892;2023-04-28T06:53:05;100350.00;;;13.10
20103;BMP180;10210;52.284;9.892;2023-04-28T06:55:33;100356.00;;;13.20
20103;BMP180;10210;52.284;9.892;2023-04-28T06:57:58;100349.00;;;13.20
20103;BMP180;10210;52.284;9.892;2023-04-28T07:00:31;100337.00;;;13.30
20103;BMP180;10210;52.284;9.892;2023-04-28T07:03:03;100332.00;;;13.40
20103;BMP180;10210;52.284;9.892;2023-04-28T07:05:29;100324.00;;;13.40
20103;BMP180;10210;52.284;9.892;2023-04-28T07:07:54;100324.00;;;13.50
20103;BMP180;10210;52.284;9.892;2023-04-28T07:10:23;100321.00;;;13.60
20103;BMP180;10210;52.284;9.892;2023-04-28T07:12:50;100316.00;;;13.60
20103;BMP180;10210;52.284;9.892;2023-04-28T07:15:16;100307.00;;;13.70
20103;BMP180;10210;52.284;9.892;2023-04-28T07:17:42;100308.00;;;13.80
20103;BMP180;10210;52.284;9.892;2023-04-28T07:20:08;100309.00;;;14.00
20103;BMP180;10210;52.284;9.892;2023-04-28T07:22:34;100305.00;;;14.20
20103;BMP180;10210;52.284;9.892;2023-04-28T07:24:59;100307.00;;;14.40
20103;BMP180;10210;52.284;9.892;2023-04-28T07:27:38;100313.00;;;14.50
20103;BMP180;10210;52.284;9.892;2023-04-28T07:30:05;100312.00;;;14.60
20103;BMP180;10210;52.284;9.892;2023-04-28T07:32:30;100303.00;;;14.60
20103;BMP180;10210;52.284;9.892;2023-04-28T07:34:56;100299.00;;;14.60
20103;BMP180;10210;52.284;9.892;2023-04-28T07:37:22;100308.00;;;14.70
20103;BMP180;10210;52.284;9.892;2023-04-28T07:39:47;100303.00;;;14.70
20103;BMP180;10210;52.284;9.892;2023-04-28T07:42:16;100305.00;;;14.70
20103;BMP180;10210;52.284;9.892;2023-04-28T07:44:43;100309.00;;;14.70
20103;BMP180;10210;52.284;9.892;2023-04-28T07:47:09;100301.00;;;14.70
20103;BMP180;10210;52.284;9.892;2023-04-28T07:49:35;100302.00;;;14.70
20103;BMP180;10210;52.284;9.892;2023-04-28T07:52:01;100301.00;;;14.70
20103;BMP180;10210;52.284;9.892;2023-04-28T07:54:36;100293.00;;;14.70
20103;BMP180;10210;52.284;9.892;2023-04-28T07:57:01;100292.00;;;14.80
20103;BMP180;10210;52.284;9.892;2023-04-28T07:59:32;100291.00;;;14.80
20103;BMP180;10210;52.284;9.892;2023-04-28T08:02:01;100290.00;;;14.80
20103;BMP180;10210;52.284;9.892;2023-04-28T08:04:26;100298.00;;;14.90
20103;BMP180;10210;52.284;9.892;2023-04-28T08:07:13;100292.00;;;14.90
20103;BMP180;10210;52.284;9.892;2023-04-28T08:09:39;100292.00;;;14.90
20103;BMP180;10210;52.284;9.892;2023-04-28T08:12:07;100288.00;;;15.00
20103;BMP180;10210;52.284;9.892;2023-04-28T08:14:33;100284.00;;;15.00
20103;BMP180;10210;52.284;9.892;2023-04-28T08:17:13;100284.00;;;15.10
20103;BMP180;10210;52.284;9.892;2023-04-28T08:19:39;100283.00;;;15.10
20103;BMP180;10210;52.284;9.892;2023-04-28T08:22:04;100282.00;;;15.20
20103;BMP180;10210;52.284;9.892;2023-04-28T08:24:32;100280.00;;;15.30
20103;BMP180;10210;52.284;9.892;2023-04-28T08:27:01;100286.00;;;15.30
20103;BMP180;10210;52.284;9.892;2023-04-28T08:29:30;100278.00;;;15.40
20103;BMP180;10210;52.284;9.892;2023-04-28T08:31:57;100274.00;;;15.50
20103;BMP180;10210;52.284;9.892;2023-04-28T08:34:23;100275.00;;;15.50
20103;BMP180;10210;52.284;9.892;2023-04-28T08:36:50;100281.00;;;15.60
20103;BMP180;10210;52.284;9.892;2023-04-28T08:39:15;100286.00;;;15.60
20103;BMP180;10210;52.284;9.892;2023-04-28T08:41:41;100283.00;;;15.70
20103;BMP180;10210;52.284;9.892;2023-04-28T08:44:11;100278.00;;;15.70
20103;BMP180;10210;52.284;9.892;2023-04-28T08:46:42;100272.00;;;15.80
20103;BMP180;10210;52.284;9.892;2023-04-28T08:49:14;100273.00;;;15.80
20103;BMP180;10210;52.284;9.892;2023-04-28T08:51:49;100266.00;;;15.80
20103;BMP180;10210;52.284;9.892;2023-04-28T08:54:29;100273.00;;;15.90
20103;BMP180;10210;52.284;9.892;2023-04-28T08:56:56;100266.00;;;15.90
20103;BMP180;10210;52.284;9.892;2023-04-28T08:59:22;100263.00;;;15.90
20103;BMP180;10210;52.284;9.892;2023-04-28T09:01:48;100263.00;;;16.00
20103;BMP180;10210;52.284;9.892;2023-04-28T09:04:16;100261.00;;;16.00
20103;BMP180;10210;52.284;9.892;2023-04-28T09:06:42;100256.00;;;16.00
20103;BMP180;10210;52.284;9.892;2023-04-28T09:09:28;100244.00;;;16.00
20103;BMP180;10210;52.284;9.892;2023-04-28T09:11:59;100246.00;;;16.10
20103;BMP180;10210;52.284;9.892;2023-04-28T09:14:36;100249.00;;;16.10
20103;BMP180;10210;52.284;9.892;2023-04-28T09:17:13;100254.00;;;16.10
20103;BMP180;10210;52.284;9.892;2023-04-28T09:19:39;100245.00;;;16.10
20103;BMP180;10210;52.284;9.892;2023-04-28T09:22:07;100243.00;;;16.20
20103;BMP180;10210;52.284;9.892;2023-04-28T09:24:56;100247.00;;;16.20
20103;BMP180;10210;52.284;9.892;2023-04-28T09:27:27;100243.00;;;16.20
20103;BMP180;10210;52.284;9.892;2023-04-28T09:29:53;100234.00;;;16.20
20103;BMP180;10210;52.284;9.892;2023-04-28T09:32:22;100239.00;;;16.20
20103;BMP180;10210;52.284;9.892;2023-04-28T09:34:53;100233.00;;;16.30
20103;BMP180;10210;52.284;9.892;2023-04-28T09:37:23;100232.00;;;16.40
20103;BMP180;10210;52.284;9.892;2023-04-28T09:39:53;100227.00;;;16.40
20103;BMP180;10210;52.284;9.892;2023-04-28T09:42:42;100225.00;;;16.50
20103;BMP180;10210;52.284;9.892;2023-04-28T09:45:18;100217.00;;;16.60
20103;BMP180;10210;52.284;9.892;2023-04-28T09:47:45;100216.00;;;16.60
20103;BMP180;10210;52.284;9.892;2023-04-28T09:50:15;100210.00;;;16.70
20103;BMP180;10210;52.284;9.892;2023-04-28T09:52:55;100214.00;;;16.70
20103;BMP180;10210;52.284;9.892;2023-04-28T09:55:23;100218.00;;;16.80
20103;BMP180;10210;52.284;9.892;2023-04-28T09:57:53;100221.00;;;16.90
20103;BMP180;10210;52.284;9.892;2023-04-28T10:00:20;100207.00;;;17.00
20103;BMP180;10210;52.284;9.892;2023-04-28T10:02:49;100218.00;;;17.00
20103;BMP180;10210;52.284;9.892;2023-04-28T10:05:20;100210.00;;;17.10
20103;BMP180;10210;52.284;9.892;2023-04-28T10:07:47;100210.00;;;17.10
20103;BMP180;10210;52.284;9.892;2023-04-28T10:10:12;100224.00;;;17.20
20103;BMP180;10210;52.284;9.892;2023-04-28T10:12:39;100228.00;;;17.20
20103;BMP180;10210;52.284;9.892;2023-04-28T10:15:06;100233.00;;;17.20
20103;BMP180;10210;52.284;9.892;2023-04-28T10:17:38;100228.00;;;17.20
20103;BMP180;10210;52.284;9.892;2023-04-28T10:20:04;100226.00;;;17.20
20103;BMP180;10210;52.284;9.892;2023-04-28T10:25:48;100220.00;;;17.20
20103;BMP180;10210;52.284;9.892;2023-04-28T10:28:18;100220.00;;;17.20
20103;BMP180;10210;52.284;9.892;2023-04-28T10:31:11;100214.00;;;17.10
20103;BMP180;10210;52.284;9.892;2023-04-28T10:33:39;100206.00;;;17.10
20103;BMP180;10210;52.284;9.892;2023-04-28T10:36:06;100200.00;;;17.10
20103;BMP180;10210;52.284;9.892;2023-04-28T10:38:33;100201.00;;;17.10
20103;BMP180;10210;52.284;9.892;2023-04-28T10:41:00;100207.00;;;17.10
20103;BMP180;10210;52.284;9.892;2023-04-28T10:56:22;100209.00;;;17.10
20103;BMP180;10210;52.284;9.892;2023-04-28T10:58:54;100192.00;;;17.10
20103;BMP180;10210;52.284;9.892;2023-04-28T11:09:01;100200.00;;;17.20
20103;BMP180;10210;52.284;9.892;2023-04-28T11:11:32;100189.00;;;17.10
20103;BMP180;10210;52.284;9.892;2023-04-28T11:14:34;100182.00;;;17.10
20103;BMP180;10210;52.284;9.892;2023-04-28T11:17:05;100177.00;;;17.10
20103;BMP180;10210;52.284;9.892;2023-04-28T11:19:37;100176.00;;;17.10
20103;BMP180;10210;52.284;9.892;2023-04-28T11:22:06;100177.00;;;17.10
20103;BMP180;10210;52.284;9.892;2023-04-28T11:24:37;100176.00;;;17.10
20103;BMP180;10210;52.284;9.892;2023-04-28T11:27:03;100171.00;;;17.20
20103;BMP180;10210;52.284;9.892;2023-04-28T11:29:41;100173.00;;;17.10
20103;BMP180;10210;52.284;9.892;2023-04-28T11:32:09;100166.00;;;17.20
20103;BMP180;10210;52.284;9.892;2023-04-28T11:34:36;100171.00;;;17.30
20103;BMP180;10210;52.284;9.892;2023-04-28T11:37:02;100165.00;;;17.30
20103;BMP180;10210;52.284;9.892;2023-04-28T11:39:33;100157.00;;;17.30
20103;BMP180;10210;52.284;9.892;2023-04-28T11:42:09;100159.00;;;17.40
20103;BMP180;10210;52.284;9.892;2023-04-28T11:44:35;100161.00;;;17.50
20103;BMP180;10210;52.284;9.892;2023-04-28T11:47:03;100161.00;;;17.50
20103;BMP180;10210;52.284;9.892;2023-04-28T11:49:44;100156.00;;;17.60
20103;BMP180;10210;52.284;9.892;2023-04-28T11:52:11;100157.00;;;17.70
20103;BMP180;10210;52.284;9.892;2023-04-28T11:54:37;100168.00;;;17.80
20103;BMP180;10210;52.284;9.892;2023-04-28T11:57:04;100161.00;;;17.80
20103;BMP180;10210;52.284;9.892;2023-04-28T11:59:33;100165.00;;;17.80
20103;BMP180;10210;52.284;9.892;2023-04-28T12:02:02;100168.00;;;17.90
20103;BMP180;10210;52.284;9.892;2023-04-28T12:04:39;100162.00;;;17.80
20103;BMP180;10210;52.284;9.892;2023-04-28T12:07:13;100158.00;;;17.90
20103;BMP180;10210;52.284;9.892;2023-04-28T12:09:43;100151.00;;;17.90
20103;BMP180;10210;52.284;9.892;2023-04-28T12:12:14;100162.00;;;17.90
20103;BMP180;10210;52.284;9.892;2023-04-28T12:14:58;100163.00;;;17.80
20103;BMP180;10210;52.284;9.892;2023-04-28T12:17:30;100153.00;;;17.90
20103;BMP180;10210;52.284;9.892;2023-04-28T12:20:03;100153.00;;;17.90
20103;BMP180;10210;52.284;9.892;2023-04-28T12:22:29;100155.00;;;17.90
20103;BMP180;10210;52.284;9.892;2023-04-28T12:25:10;100151.00;;;17.80
20103;BMP180;10210;52.284;9.892;2023-04-28T12:27:38;100155.00;;;17.80
20103;BMP180;10210;52.284;9.892;2023-04-28T12:32:46;100164.00;;;17.90
20103;BMP180;10210;52.284;9.892;2023-04-28T12:35:12;100162.00;;;17.80
20103;BMP180;10210;52.284;9.892;2023-04-28T12:37:38;100152.00;;;17.80
20103;BMP180;10210;52.284;9.892;2023-04-28T12:40:07;100149.00;;;17.70
20103;BMP180;10210;52.284;9.892;2023-04-28T12:42:34;100143.00;;;17.60
20103;BMP180;10210;52.284;9.892;2023-04-28T12:44:59;100141.00;;;17.50
20103;BMP180;10210;52.284;9.892;2023-04-28T12:47:28;100134.00;;;17.40
20103;BMP180;10210;52.284;9.892;2023-04-28T12:49:54;100144.00;;;17.20
20103;BMP180;10210;52.284;9.892;2023-04-28T12:52:20;100140.00;;;17.10
20103;BMP180;10210;52.284;9.892;2023-04-28T12:54:47;100138.00;;;17.00
20103;BMP180;10210;52.284;9.892;2023-04-28T12:57:14;100136.00;;;16.90
20103;BMP180;10210;52.284;9.892;2023-04-28T12:59:40;100125.00;;;16.80
20103;BMP180;10210;52.284;9.892;2023-04-28T13:02:06;100121.00;;;16.70
20103;BMP180;10210;52.284;9.892;2023-04-28T13:04:32;100127.00;;;16.70
20103;BMP180;10210;52.284;9.892;2023-04-28T13:06:58;100123.00;;;16.60
20103;BMP180;10210;52.284;9.892;2023-04-28T13:09:24;100116.00;;;16.60
20103;BMP180;10210;52.284;9.892;2023-04-28T13:11:51;100117.00;;;16.60
20103;BMP180;10210;52.284;9.892;2023-04-28T13:14:20;100125.00;;;16.60
20103;BMP180;10210;52.284;9.892;2023-04-28T13:16:46;100117.00;;;16.60
20103;BMP180;10210;52.284;9.892;2023-04-28T13:19:12;100111.00;;;16.70
20103;BMP180;10210;52.284;9.892;2023-04-28T13:21:42;100104.00;;;16.70
20103;BMP180;10210;52.284;9.892;2023-04-28T13:24:09;100104.00;;;16.70
20103;BMP180;10210;52.284;9.892;2023-04-28T13:26:36;100102.00;;;16.80
20103;BMP180;10210;52.284;9.892;2023-04-28T13:29:05;100094.00;;;16.80
20103;BMP180;10210;52.284;9.892;2023-04-28T13:31:33;100104.00;;;16.90
20103;BMP180;10210;52.284;9.892;2023-04-28T13:33:58;100102.00;;;16.90
20103;BMP180;10210;52.284;9.892;2023-04-28T13:36:27;100099.00;;;16.90
20103;BMP180;10210;52.284;9.892;2023-04-28T13:38:56;100095.00;;;17.00
20103;BMP180;10210;52.284;9.892;2023-04-28T13:41:22;100092.00;;;17.00
20103;BMP180;10210;52.284;9.892;2023-04-28T13:43:47;100094.00;;;17.00
20103;BMP180;10210;52.284;9.892;2023-04-28T13:46:13;100097.00;;;17.10
20103;BMP180;10210;52.284;9.892;2023-04-28T13:48:39;100096.00;;;17.10
20103;BMP180;10210;52.284;9.892;2023-04-28T13:51:06;100094.00;;;17.10
20103;BMP180;10210;52.284;9.892;2023-04-28T13:53:33;100089.00;;;17.10
20103;BMP180;10210;52.284;9.892;2023-04-28T13:55:59;100103.00;;;17.10
20103;BMP180;10210;52.284;9.892;2023-04-28T13:58:28;100095.00;;;17.20
20103;BMP180;10210;52.284;9.892;2023-04-28T14:00:55;100088.00;;;17.20
20103;BMP180;10210;52.284;9.892;2023-04-28T14:03:23;100083.00;;;17.20
20103;BMP180;10210;52.284;9.892;2023-04-28T14:05:54;100070.00;;;17.20
20103;BMP180;10210;52.284;9.892;2023-04-28T14:08:21;100074.00;;;17.20
20103;BMP180;10210;52.284;9.892;2023-04-28T14:10:48;100067.00;;;17.20
20103;BMP180;10210;52.284;9.892;2023-04-28T14:13:14;100066.00;;;17.20
20103;BMP180;10210;52.284;9.892;2023-04-28T14:15:40;100070.00;;;17.30
20103;BMP180;10210;52.284;9.892;2023-04-28T14:18:06;100067.00;;;17.30
20103;BMP180;10210;52.284;9.892;2023-04-28T14:20:34;100074.00;;;17.30
20103;BMP180;10210;52.284;9.892;2023-04-28T14:23:00;100060.00;;;17.30
20103;BMP180;10210;52.284;9.892;2023-04-28T14:25:26;100064.00;;;17.30